Bridgewater, New Jersey
Current Conditions -  °F | °C
As of 5:53 AM on Sunday 26 Oct 2014 (Local Time) from KSMQ Reporting Station
Scattered Clouds Scattered Clouds  
Wind Chill: 57°   Ceiling: Unl
Heat Index: 57°   Visibility: 10mi
Dew Point: 35°   Wind: 12mph
Humidity: 44%   Direction: 310°NW
Pressure: 29.61"   Gusts: NA
Location:  40.59°N, 74.62°W
Report Text: KSMQ 260953Z AUTO 31010KT 10SM SCT075 14/02 A2961 RMK AO2 SLP028 T01390017
Loading
Personal Weather Stations






























Interactive Weather Map New forecast layout! Learn more

10-Day Weather Forecast

Advertisements
Track Severe Weather on mobile